Time;durP1;ratioP1;P1;durP2;ratioP2;P2;SDS_P1;SDS_P2;PMS_P1;PMS_P2;Temp;Humidity;BMP_temperature;BMP_pressure;BME280_temperature;BME280_humidity;BME280_pressure;Samples;Min_cycle;Max_cycle;Signal;HPM_P1;HPM_P2
2023/03/30 00:00:21;;;;;;;;;;;;;;;8.77;73.35;93023.28;2052605;70;20165;-75
2023/03/30 00:02:49;;;;;;;;;;;;;;;8.70;73.30;93023.41;2052449;70;20137;-74
2023/03/30 00:05:17;;;;;;;;;;;;;;;8.82;73.21;93015.88;2052535;70;20053;-75
2023/03/30 00:07:44;;;;;;;;;;;;;;;8.57;74.50;93010.59;2065340;69;20116;-75
2023/03/30 00:10:10;;;;;;;;;;;;;;;8.70;74.24;93009.38;2065217;69;20089;-75
2023/03/30 00:12:36;;;;;;;;;;;;;;;8.68;74.53;93009.97;2052487;70;20086;-75
2023/03/30 00:15:02;;;;;;;;;;;;;;;8.24;77.17;93007.41;2065386;69;20093;-75
2023/03/30 00:17:28;;;;;;;;;;;;;;;8.07;77.77;93005.50;2052293;70;20047;-75
2023/03/30 00:19:53;;;;;;;;;;;;;;;8.47;76.60;93018.25;2052460;70;20138;-75
2023/03/30 00:22:19;;;;;;;;;;;;;;;8.56;75.47;93012.63;2065510;69;20066;-75
2023/03/30 00:24:45;;;;;;;;;;;;;;;8.59;75.52;93007.91;2052416;70;20054;-75
2023/03/30 00:27:11;;;;;;;;;;;;;;;8.72;74.33;93007.47;2065223;69;20058;-75
2023/03/30 00:29:37;;;;;;;;;;;;;;;8.75;73.53;93005.53;2052393;70;20053;-75
2023/03/30 00:32:02;;;;;;;;;;;;;;;8.72;74.69;93012.34;2052375;70;20050;-75
2023/03/30 00:34:28;;;;;;;;;;;;;;;8.52;76.12;93014.41;2052550;70;20058;-75
2023/03/30 00:36:55;;;;;;;;;;;;;;;8.38;76.46;93030.94;2052263;70;20062;-75
2023/03/30 00:39:21;;;;;;;;;;;;;;;8.58;75.86;93021.22;2052364;69;20081;-75
2023/03/30 00:41:47;;;;;;;;;;;;;;;8.61;75.42;93020.03;2052526;70;20488;-76
2023/03/30 00:44:32;;;;;;;;;;;;;;;8.70;75.55;93012.19;2052551;70;20138;-75
2023/03/30 00:46:58;;;;;;;;;;;;;;;8.77;74.83;93008.50;2065211;69;20047;-75
2023/03/30 00:49:24;;;;;;;;;;;;;;;8.87;73.48;93006.41;2052311;70;20058;-75
2023/03/30 00:51:50;;;;;;;;;;;;;;;8.91;73.88;93003.91;2052256;70;20065;-75
2023/03/30 00:54:18;;;;;;;;;;;;;;;8.88;74.32;93005.81;2065245;69;20043;-75
2023/03/30 00:56:45;;;;;;;;;;;;;;;8.74;74.75;92996.38;2065232;69;20050;-75
2023/03/30 00:59:12;;;;;;;;;;;;;;;8.63;75.41;93013.81;2052235;70;20189;-75
2023/03/30 01:01:39;;;;;;;;;;;;;;;8.80;74.86;93007.31;2062314;69;20204;-74
2023/03/30 01:04:06;;;;;;;;;;;;;;;8.84;74.47;93016.78;2064948;69;20046;-75
2023/03/30 01:06:32;;;;;;;;;;;;;;;8.78;74.49;93021.94;2052344;70;20146;-75
2023/03/30 01:08:58;;;;;;;;;;;;;;;8.81;75.19;93009.53;2052290;70;20046;-75
2023/03/30 01:11:25;;;;;;;;;;;;;;;8.73;76.08;93011.75;2065199;69;20569;-75
2023/03/30 01:14:11;;;;;;;;;;;;;;;8.53;77.45;92999.06;2052248;70;20659;-76
2023/03/30 01:16:42;;;;;;;;;;;;;;;8.39;77.96;92993.91;2052261;70;20496;-75
2023/03/30 01:19:28;;;;;;;;;;;;;;;8.61;77.54;92999.63;2052522;69;20063;-74
2023/03/30 01:22:03;;;;;;;;;;;;;;;8.83;76.01;92986.47;2052643;70;20051;-75
2023/03/30 01:24:33;;;;;;;;;;;;;;;8.78;76.66;92974.22;2065528;69;20054;-75
2023/03/30 01:27:07;;;;;;;;;;;;;;;8.63;78.38;92952.81;2065330;69;20127;-74
2023/03/30 01:29:44;;;;;;;;;;;;;;;8.54;77.68;92964.06;2052612;70;20055;-75
2023/03/30 01:32:19;;;;;;;;;;;;;;;8.63;77.81;92966.13;2065252;69;20051;-75
2023/03/30 01:34:50;;;;;;;;;;;;;;;8.60;76.95;92962.41;2065370;69;20403;-75
2023/03/30 01:37:34;;;;;;;;;;;;;;;8.73;75.88;92957.69;2052386;70;20486;-75
2023/03/30 01:40:16;;;;;;;;;;;;;;;8.69;76.41;92968.63;2065202;69;20061;-76
2023/03/30 01:42:44;;;;;;;;;;;;;;;8.75;74.61;92971.84;2052376;70;20150;-75
2023/03/30 01:45:30;;;;;;;;;;;;;;;8.78;75.87;92967.88;2052362;70;20086;-75
2023/03/30 01:48:05;;;;;;;;;;;;;;;8.80;73.99;92965.22;2052254;69;20085;-74
2023/03/30 01:50:37;;;;;;;;;;;;;;;8.77;75.19;92966.41;2052242;69;20086;-75
2023/03/30 01:53:14;;;;;;;;;;;;;;;8.86;75.90;92960.75;2064974;69;20142;-75
2023/03/30 01:55:42;;;;;;;;;;;;;;;8.89;75.29;92967.28;2065112;69;20054;-75
2023/03/30 01:58:27;;;;;;;;;;;;;;;8.70;77.08;92970.09;2065163;69;20430;-75
2023/03/30 02:00:53;;;;;;;;;;;;;;;8.79;75.28;92964.47;2065062;69;20065;-75
2023/03/30 02:03:45;;;;;;;;;;;;;;;8.68;76.30;92958.72;2065082;69;20051;-74
2023/03/30 02:06:17;;;;;;;;;;;;;;;8.86;76.06;92954.41;2063885;69;20063;-75
2023/03/30 02:08:48;;;;;;;;;;;;;;;8.87;75.51;92939.03;2052050;69;20403;-75
2023/03/30 02:11:14;;;;;;;;;;;;;;;8.63;76.18;92943.66;2065129;69;20058;-75
2023/03/30 02:13:40;;;;;;;;;;;;;;;8.78;76.48;92937.00;2062180;69;20050;-75
2023/03/30 02:16:11;;;;;;;;;;;;;;;8.82;75.53;92943.63;2065239;69;20419;-75
2023/03/30 02:18:37;;;;;;;;;;;;;;;8.91;74.87;92937.25;2061960;69;20055;-75
2023/03/30 02:21:03;;;;;;;;;;;;;;;8.96;75.67;92941.09;2052179;70;20053;-75
2023/03/30 02:23:31;;;;;;;;;;;;;;;8.90;76.42;92932.25;2052296;70;20054;-75
2023/03/30 02:25:56;;;;;;;;;;;;;;;8.64;77.12;92940.25;2052199;70;20062;-75
2023/03/30 02:28:22;;;;;;;;;;;;;;;8.88;76.11;92932.09;2052168;70;20145;-74
2023/03/30 02:30:49;;;;;;;;;;;;;;;8.67;77.34;92926.38;2052156;70;20577;-75
2023/03/30 02:33:42;;;;;;;;;;;;;;;8.73;75.89;92921.94;2051872;69;20086;-75
2023/03/30 02:36:34;;;;;;;;;;;;;;;8.86;76.38;92907.41;2051448;69;20078;-74
2023/03/30 02:39:16;;;;;;;;;;;;;;;8.97;75.47;92913.75;2035523;70;20147;-74
2023/03/30 02:41:59;;;;;;;;;;;;;;;8.77;76.69;92910.25;2038289;70;20090;-75
2023/03/30 02:44:28;;;;;;;;;;;;;;;8.68;77.01;92908.94;2038342;70;20082;-75
2023/03/30 02:47:06;;;;;;;;;;;;;;;8.85;75.38;92913.63;2035461;70;20161;-75
2023/03/30 02:49:51;;;;;;;;;;;;;;;8.83;75.97;92907.88;2035046;70;20095;-75
2023/03/30 02:52:32;;;;;;;;;;;;;;;8.71;76.02;92904.22;2035485;70;20056;-74
2023/03/30 02:55:19;;;;;;;;;;;;;;;8.73;76.60;92907.16;2038186;70;20106;-75
2023/03/30 02:58:11;;;;;;;;;;;;;;;8.66;76.35;92908.81;2038091;70;20102;-74
2023/03/30 03:00:55;;;;;;;;;;;;;;;8.75;75.51;92901.69;2038251;70;20121;-75
2023/03/30 03:03:32;;;;;;;;;;;;;;;8.67;76.51;92896.25;2035130;70;20055;-74
2023/03/30 03:06:01;;;;;;;;;;;;;;;8.74;75.71;92891.78;2038083;70;20468;-74
2023/03/30 03:08:35;;;;;;;;;;;;;;;8.57;76.15;92887.84;2038629;70;20103;-74
2023/03/30 03:11:01;;;;;;;;;;;;;;;8.39;77.58;92878.13;2048958;69;20434;-74
2023/03/30 03:13:36;;;;;;;;;;;;;;;8.63;75.81;92877.03;2038459;70;20147;-74
2023/03/30 03:16:02;;;;;;;;;;;;;;;8.67;75.98;92885.03;2054558;69;20053;-75
2023/03/30 03:18:30;;;;;;;;;;;;;;;8.57;77.12;92879.44;2065249;69;20145;-74
2023/03/30 03:20:57;;;;;;;;;;;;;;;8.65;76.12;92877.19;2065518;69;20054;-74
2023/03/30 03:23:23;;;;;;;;;;;;;;;8.36;78.09;92876.47;2065539;69;20047;-73
2023/03/30 03:25:51;;;;;;;;;;;;;;;8.57;76.51;92876.63;2065458;69;20507;-73
2023/03/30 03:28:18;;;;;;;;;;;;;;;8.62;76.25;92875.56;2046222;69;20061;-73
2023/03/30 03:30:47;;;;;;;;;;;;;;;8.69;75.78;92879.53;2052469;70;20437;-74
2023/03/30 03:33:19;;;;;;;;;;;;;;;8.58;76.33;92872.47;2064992;69;20059;-73
2023/03/30 03:35:54;;;;;;;;;;;;;;;8.50;75.76;92876.78;2065221;69;20057;-74
2023/03/30 03:38:20;;;;;;;;;;;;;;;8.55;76.31;92867.31;2059862;69;20097;-74
2023/03/30 03:40:51;;;;;;;;;;;;;;;8.29;77.60;92875.31;2062586;69;20059;-73
2023/03/30 03:43:18;;;;;;;;;;;;;;;8.28;78.71;92873.81;2065236;69;20591;-73
2023/03/30 03:45:44;;;;;;;;;;;;;;;8.37;77.32;92875.16;2065388;69;20123;-72
2023/03/30 03:48:10;;;;;;;;;;;;;;;8.41;76.75;92872.66;2052346;70;20453;-73
2023/03/30 03:50:43;;;;;;;;;;;;;;;8.40;76.62;92871.91;2065395;69;20131;-73
2023/03/30 03:53:09;;;;;;;;;;;;;;;8.28;76.31;92885.03;2068065;69;20045;-74
2023/03/30 03:55:35;;;;;;;;;;;;;;;8.23;76.27;92893.75;2068193;69;20061;-73
2023/03/30 03:58:01;;;;;;;;;;;;;;;8.31;76.47;92871.91;2065007;69;20648;-73
2023/03/30 04:00:28;;;;;;;;;;;;;;;8.18;76.91;92864.69;2068171;69;20141;-73
2023/03/30 04:02:55;;;;;;;;;;;;;;;7.72;80.23;92870.44;2068152;69;20144;-73
2023/03/30 04:05:20;;;;;;;;;;;;;;;8.08;77.92;92881.53;2068163;69;20065;-73
2023/03/30 04:07:45;;;;;;;;;;;;;;;8.13;78.36;92862.91;2068181;69;20049;-73
2023/03/30 04:10:12;;;;;;;;;;;;;;;8.22;77.38;92867.78;2068111;69;20144;-73
2023/03/30 04:13:09;;;;;;;;;;;;;;;8.17;78.51;92874.44;2062343;69;20067;-73
2023/03/30 04:15:48;;;;;;;;;;;;;;;8.23;77.63;92876.94;2067892;69;20061;-73
2023/03/30 04:18:34;;;;;;;;;;;;;;;8.24;78.17;92867.91;2063646;69;20107;-73
2023/03/30 04:21:21;;;;;;;;;;;;;;;8.24;77.53;92870.72;2068467;69;20091;-73
2023/03/30 04:24:00;;;;;;;;;;;;;;;8.24;77.58;92875.59;2067782;69;20611;-72
2023/03/30 04:26:47;;;;;;;;;;;;;;;8.19;78.20;92871.75;2068691;69;20057;-73
2023/03/30 04:29:41;;;;;;;;;;;;;;;7.77;80.18;92886.97;2065742;69;20088;-73
2023/03/30 04:32:25;;;;;;;;;;;;;;;8.10;79.34;92889.34;2068462;69;20520;-73
2023/03/30 04:35:11;;;;;;;;;;;;;;;8.21;77.86;92874.00;2068476;69;20235;-73
2023/03/30 04:38:06;;;;;;;;;;;;;;;8.21;77.45;92879.59;2067918;69;20056;-73
2023/03/30 04:41:01;;;;;;;;;;;;;;;8.25;77.56;92875.03;2067923;69;20069;-73
2023/03/30 04:43:45;;;;;;;;;;;;;;;8.27;77.68;92874.41;2067925;69;20184;-73
2023/03/30 04:46:26;;;;;;;;;;;;;;;8.29;77.69;92880.94;2067850;69;20083;-73
2023/03/30 04:49:11;;;;;;;;;;;;;;;8.21;77.42;92876.81;2064313;69;20503;-73
2023/03/30 04:51:55;;;;;;;;;;;;;;;8.23;77.64;92880.47;2052903;69;20053;-73
2023/03/30 04:54:54;;;;;;;;;;;;;;;8.24;77.53;92873.53;2064968;69;20083;-73
2023/03/30 04:57:48;;;;;;;;;;;;;;;8.40;77.17;92888.03;2054316;69;20142;-73
2023/03/30 05:00:47;;;;;;;;;;;;;;;8.40;77.30;92882.41;2054584;69;20433;-73
2023/03/30 05:03:45;;;;;;;;;;;;;;;8.25;77.89;92886.25;2056579;69;20062;-73
2023/03/30 05:06:28;;;;;;;;;;;;;;;8.35;77.28;92883.44;2065132;69;20063;-74
2023/03/30 05:09:17;;;;;;;;;;;;;;;8.42;77.09;92888.16;2056069;69;20548;-75
2023/03/30 05:12:06;;;;;;;;;;;;;;;8.29;77.89;92894.94;2065261;69;20474;-72
2023/03/30 05:14:50;;;;;;;;;;;;;;;8.41;77.48;92889.50;2064963;69;20070;-72
2023/03/30 05:17:34;;;;;;;;;;;;;;;8.53;76.21;92898.78;2052239;70;20057;-73
2023/03/30 05:20:15;;;;;;;;;;;;;;;8.53;77.04;92901.59;2065176;69;20061;-73
2023/03/30 05:22:52;;;;;;;;;;;;;;;8.59;77.47;92901.28;2062540;69;20103;-74
2023/03/30 05:25:54;;;;;;;;;;;;;;;8.22;78.34;92906.31;2060122;69;20164;-74
2023/03/30 05:28:49;;;;;;;;;;;;;;;7.94;80.38;92907.78;2059795;69;20100;-75
2023/03/30 05:31:18;;;;;;;;;;;;;;;8.34;78.74;92893.19;2064774;69;20058;-75
2023/03/30 05:34:06;;;;;;;;;;;;;;;8.17;78.52;92901.75;2065257;69;20157;-75
2023/03/30 05:36:50;;;;;;;;;;;;;;;8.33;78.84;92886.06;2052329;70;20169;-75
2023/03/30 05:39:48;;;;;;;;;;;;;;;8.47;79.17;92884.31;2060362;69;20061;-75
2023/03/30 05:42:31;;;;;;;;;;;;;;;8.44;79.34;92884.78;2062858;69;20466;-75
2023/03/30 05:45:09;;;;;;;;;;;;;;;8.48;79.72;92883.00;2052177;70;20479;-75
2023/03/30 05:47:44;;;;;;;;;;;;;;;8.39;79.58;92881.69;2052187;70;20414;-75
2023/03/30 05:50:29;;;;;;;;;;;;;;;8.64;77.33;92883.38;2052045;69;20595;-75
2023/03/30 05:53:01;;;;;;;;;;;;;;;8.67;77.75;92879.41;2051883;70;20074;-75
2023/03/30 05:55:56;;;;;;;;;;;;;;;8.64;77.58;92872.16;2065096;69;20054;-75
2023/03/30 05:58:41;;;;;;;;;;;;;;;8.55;79.09;92862.44;2063255;69;20590;-75
2023/03/30 06:01:14;;;;;;;;;;;;;;;8.56;79.70;92852.69;2065043;69;20219;-75
2023/03/30 06:03:42;;;;;;;;;;;;;;;8.70;79.27;92840.97;2065120;69;20054;-75
2023/03/30 06:06:09;;;;;;;;;;;;;;;8.89;77.97;92841.66;2065196;69;20083;-75
2023/03/30 06:08:36;;;;;;;;;;;;;;;9.11;76.23;92842.44;2065121;69;20494;-77
2023/03/30 06:11:03;;;;;;;;;;;;;;;9.02;78.67;92840.41;2065136;69;20055;-75
2023/03/30 06:13:41;;;;;;;;;;;;;;;8.78;80.00;92836.66;2064954;69;20047;-75
2023/03/30 06:16:06;;;;;;;;;;;;;;;9.10;78.59;92843.03;2065068;69;20406;-76
2023/03/30 06:18:32;;;;;;;;;;;;;;;8.71;80.23;92843.22;2065130;69;20051;-75
2023/03/30 06:21:07;;;;;;;;;;;;;;;9.13;77.96;92834.16;2047257;69;20150;-75
2023/03/30 06:23:47;;;;;;;;;;;;;;;9.25;77.50;92834.25;2065156;69;20471;-75
2023/03/30 06:26:17;;;;;;;;;;;;;;;9.32;77.25;92826.97;2065184;69;20050;-74
2023/03/30 06:28:43;;;;;;;;;;;;;;;9.50;76.50;92824.66;2065140;69;20050;-75
2023/03/30 06:31:09;;;;;;;;;;;;;;;9.62;77.64;92833.88;2052208;70;20053;-77
2023/03/30 06:33:36;;;;;;;;;;;;;;;9.68;76.76;92825.84;2067453;69;20486;-74
2023/03/30 06:36:09;;;;;;;;;;;;;;;9.77;76.17;92810.25;2062575;69;20054;-73
2023/03/30 06:38:35;;;;;;;;;;;;;;;9.80;76.81;92823.09;2065933;69;20066;-74
2023/03/30 06:41:07;;;;;;;;;;;;;;;9.88;76.21;92801.13;2065954;69;20160;-74
2023/03/30 06:43:36;;;;;;;;;;;;;;;9.80;76.53;92797.78;2052399;69;20054;-75
2023/03/30 06:46:14;;;;;;;;;;;;;;;9.55;76.88;92799.00;2065201;69;20051;-74
2023/03/30 06:48:45;;;;;;;;;;;;;;;9.71;78.19;92793.72;2065145;69;20069;-75
2023/03/30 06:51:30;;;;;;;;;;;;;;;9.98;77.02;92787.72;2052159;70;20276;-75
2023/03/30 06:53:58;;;;;;;;;;;;;;;10.09;76.88;92787.03;2065148;69;20082;-75
2023/03/30 06:56:26;;;;;;;;;;;;;;;10.23;76.84;92784.38;2065261;69;20077;-75
2023/03/30 06:59:08;;;;;;;;;;;;;;;9.70;78.29;92777.44;2052207;69;20055;-75
2023/03/30 07:01:54;;;;;;;;;;;;;;;10.04;77.64;92787.38;2052248;69;20050;-74
2023/03/30 07:04:48;;;;;;;;;;;;;;;10.38;76.08;92783.22;2065158;69;20124;-75
2023/03/30 07:07:53;;;;;;;;;;;;;;;10.48;73.87;92800.00;2058143;69;20493;-74
2023/03/30 07:10:19;;;;;;;;;;;;;;;10.49;74.62;92796.59;2064913;69;20051;-74
2023/03/30 07:12:45;;;;;;;;;;;;;;;10.55;75.07;92796.25;2064940;69;20107;-75
2023/03/30 07:15:12;;;;;;;;;;;;;;;10.07;76.55;92795.34;2064818;69;20075;-75
2023/03/30 07:17:39;;;;;;;;;;;;;;;9.88;78.20;92795.50;2064937;69;20208;-75
2023/03/30 07:20:07;;;;;;;;;;;;;;;10.53;76.22;92796.09;2051909;70;20051;-74
2023/03/30 07:22:35;;;;;;;;;;;;;;;10.73;75.17;92791.00;2064976;69;20116;-74
2023/03/30 07:25:04;;;;;;;;;;;;;;;10.89;74.94;92787.09;2064975;69;20161;-74
2023/03/30 07:27:31;;;;;;;;;;;;;;;10.95;72.93;92778.28;2065074;69;20047;-75
2023/03/30 07:29:58;;;;;;;;;;;;;;;11.03;73.20;92781.56;2065062;69;20555;-75
2023/03/30 07:32:23;;;;;;;;;;;;;;;11.20;74.13;92772.03;2064823;69;20142;-75
2023/03/30 07:34:49;;;;;;;;;;;;;;;11.27;73.16;92773.88;2052300;70;20122;-75
2023/03/30 07:37:15;;;;;;;;;;;;;;;11.32;72.75;92766.38;2065043;69;20481;-75
2023/03/30 07:39:41;;;;;;;;;;;;;;;11.15;73.32;92768.22;2064990;69;20067;-75
2023/03/30 07:42:06;;;;;;;;;;;;;;;11.39;71.75;92751.28;2064885;69;20047;-75
2023/03/30 07:44:32;;;;;;;;;;;;;;;11.02;73.27;92754.03;2064976;69;20472;-74
2023/03/30 07:47:05;;;;;;;;;;;;;;;11.20;73.42;92743.84;2064875;69;20039;-73
2023/03/30 07:49:32;;;;;;;;;;;;;;;11.23;73.45;92753.91;2062350;69;20054;-73
2023/03/30 07:51:58;;;;;;;;;;;;;;;11.59;71.70;92763.75;2052526;69;20525;-74
2023/03/30 07:54:33;;;;;;;;;;;;;;;11.75;70.93;92760.38;2065482;69;20074;-74
2023/03/30 07:57:13;;;;;;;;;;;;;;;11.88;72.63;92748.47;2065359;69;20081;-75
2023/03/30 07:59:39;;;;;;;;;;;;;;;11.48;73.23;92747.59;2065342;69;20081;-75
2023/03/30 08:02:17;;;;;;;;;;;;;;;11.69;71.69;92738.22;2065286;69;20089;-74
2023/03/30 08:04:47;;;;;;;;;;;;;;;12.05;71.43;92736.00;2065365;69;20055;-75
2023/03/30 08:07:16;;;;;;;;;;;;;;;12.37;69.17;92745.53;2065419;69;20058;-76
2023/03/30 08:09:44;;;;;;;;;;;;;;;11.56;72.68;92747.31;2065375;69;20054;-75
2023/03/30 08:12:11;;;;;;;;;;;;;;;12.08;71.26;92741.16;2052414;70;20054;-76
2023/03/30 08:14:37;;;;;;;;;;;;;;;12.03;70.05;92736.63;2065414;69;20514;-76
2023/03/30 08:17:03;;;;;;;;;;;;;;;12.09;71.24;92739.78;2052329;69;20098;-75
2023/03/30 08:19:29;;;;;;;;;;;;;;;12.71;68.42;92724.81;2052314;70;20100;-75
2023/03/30 08:21:55;;;;;;;;;;;;;;;12.79;67.87;92716.03;2065486;69;20054;-76
2023/03/30 08:24:21;;;;;;;;;;;;;;;12.88;69.12;92711.56;2052337;69;20073;-75
2023/03/30 08:26:49;;;;;;;;;;;;;;;12.45;68.59;92704.34;2064801;69;20053;-75
2023/03/30 08:29:15;;;;;;;;;;;;;;;12.65;68.76;92701.19;2052488;70;20055;-75
2023/03/30 08:31:41;;;;;;;;;;;;;;;13.14;67.17;92700.88;2052306;70;20156;-75
2023/03/30 08:34:10;;;;;;;;;;;;;;;12.37;69.63;92709.59;2052343;70;20137;-76
2023/03/30 08:36:35;;;;;;;;;;;;;;;12.89;67.64;92704.53;2052440;70;20046;-75
2023/03/30 08:39:01;;;;;;;;;;;;;;;13.30;66.27;92709.50;2052152;70;20066;-74
2023/03/30 08:41:27;;;;;;;;;;;;;;;13.19;66.35;92711.78;2052626;70;20054;-75
2023/03/30 08:43:55;;;;;;;;;;;;;;;13.17;65.98;92716.56;2053073;70;20059;-76
2023/03/30 08:46:21;;;;;;;;;;;;;;;13.53;65.23;92712.06;2052501;70;20075;-74
2023/03/30 08:48:47;;;;;;;;;;;;;;;13.78;64.93;92707.59;2052385;70;20523;-75
2023/03/30 08:51:13;;;;;;;;;;;;;;;13.29;65.20;92703.09;2052315;70;20054;-76
2023/03/30 08:53:41;;;;;;;;;;;;;;;13.55;64.78;92703.69;2052762;70;20058;-78
2023/03/30 08:56:23;;;;;;;;;;;;;;;13.86;64.81;92708.00;2052138;70;20051;-76
2023/03/30 08:58:54;;;;;;;;;;;;;;;14.08;64.33;92714.75;2052440;70;20078;-75
2023/03/30 09:01:20;;;;;;;;;;;;;;;14.02;64.44;92720.13;2052325;70;20479;-75
2023/03/30 09:03:51;;;;;;;;;;;;;;;14.08;63.83;92706.25;2052543;70;20054;-75
2023/03/30 09:06:23;;;;;;;;;;;;;;;13.58;63.16;92705.25;2052343;70;20071;-76
2023/03/30 09:08:49;;;;;;;;;;;;;;;13.77;64.24;92692.72;2052247;69;20201;-75
2023/03/30 09:11:20;;;;;;;;;;;;;;;13.99;64.48;92693.09;2052236;70;20058;-75
2023/03/30 09:13:48;;;;;;;;;;;;;;;13.75;65.95;92687.00;2065236;69;20126;-75
2023/03/30 09:16:27;;;;;;;;;;;;;;;13.63;64.47;92680.72;2065323;69;20433;-75
2023/03/30 09:18:54;;;;;;;;;;;;;;;14.03;64.02;92670.63;2052350;70;20204;-76
2023/03/30 09:21:22;;;;;;;;;;;;;;;14.77;63.68;92674.03;2052255;69;20174;-75
2023/03/30 09:23:47;;;;;;;;;;;;;;;15.62;61.25;92674.16;2052279;70;20115;-75
2023/03/30 09:26:28;;;;;;;;;;;;;;;16.22;59.85;92680.88;2051949;69;20051;-75
2023/03/30 09:28:59;;;;;;;;;;;;;;;16.11;58.46;92679.72;2052387;70;20054;-75
2023/03/30 09:31:40;;;;;;;;;;;;;;;15.96;56.22;92678.44;2065294;69;20054;-75
2023/03/30 09:34:21;;;;;;;;;;;;;;;16.06;56.38;92668.88;2052075;70;20055;-75
2023/03/30 09:36:47;;;;;;;;;;;;;;;16.76;56.08;92673.03;2052422;70;20078;-75
2023/03/30 09:39:19;;;;;;;;;;;;;;;16.41;56.31;92679.50;2052821;69;20051;-74
2023/03/30 09:42:03;;;;;;;;;;;;;;;16.75;55.84;92672.28;2052275;69;20057;-74
2023/03/30 09:44:38;;;;;;;;;;;;;;;16.84;56.18;92661.22;2052200;70;20050;-74
2023/03/30 09:47:20;;;;;;;;;;;;;;;17.09;55.79;92657.91;2052207;70;20090;-74
2023/03/30 09:49:47;;;;;;;;;;;;;;;16.50;56.82;92647.91;2052100;69;20062;-75
2023/03/30 09:52:19;;;;;;;;;;;;;;;16.78;55.49;92653.22;2052398;70;20054;-75
2023/03/30 09:54:44;;;;;;;;;;;;;;;17.09;53.69;92645.78;2065114;69;20193;-75
2023/03/30 09:57:42;;;;;;;;;;;;;;;17.21;52.58;92629.16;2052502;70;20146;-75
2023/03/30 10:00:22;;;;;;;;;;;;;;;17.86;53.88;92617.13;2038314;70;20548;-75
2023/03/30 10:02:55;;;;;;;;;;;;;;;16.77;54.07;92617.66;2038267;70;20151;-75
2023/03/30 10:05:22;;;;;;;;;;;;;;;17.88;53.54;92608.66;2038386;70;20108;-75
2023/03/30 10:07:52;;;;;;;;;;;;;;;18.28;51.26;92609.22;2038214;70;20155;-75
2023/03/30 10:10:24;;;;;;;;;;;;;;;19.46;52.40;92600.44;2038393;70;20054;-75
2023/03/30 10:12:52;;;;;;;;;;;;;;;19.28;48.93;92594.97;2037905;70;20058;-75
2023/03/30 10:15:21;;;;;;;;;;;;;;;20.11;49.63;92592.06;2038122;70;20051;-75
2023/03/30 10:17:55;;;;;;;;;;;;;;;21.29;47.32;92580.34;2038173;70;20551;-75
2023/03/30 10:20:35;;;;;;;;;;;;;;;19.60;47.42;92579.38;2038366;70;20060;-75
2023/03/30 10:23:00;;;;;;;;;;;;;;;20.01;46.39;92578.28;2038404;70;20056;-75
2023/03/30 10:25:28;;;;;;;;;;;;;;;21.22;43.89;92568.06;2038252;70;20052;-75
2023/03/30 10:27:55;;;;;;;;;;;;;;;20.58;44.54;92573.19;2038231;70;20052;-75
2023/03/30 10:30:26;;;;;;;;;;;;;;;19.98;45.34;92576.81;2038374;70;20117;-75
2023/03/30 10:32:55;;;;;;;;;;;;;;;18.66;47.73;92557.59;2050990;69;20097;-75
2023/03/30 10:35:23;;;;;;;;;;;;;;;19.80;47.21;92552.09;2043090;70;20047;-75
2023/03/30 10:37:50;;;;;;;;;;;;;;;18.84;46.91;92548.13;2052143;70;20049;-75
2023/03/30 10:40:17;;;;;;;;;;;;;;;21.39;45.53;92534.00;2062293;69;20162;-75
2023/03/30 10:42:45;;;;;;;;;;;;;;;22.51;41.70;92538.69;2064813;69;20094;-75
2023/03/30 10:45:31;;;;;;;;;;;;;;;22.31;42.29;92530.50;2064982;69;20561;-75
2023/03/30 10:48:09;;;;;;;;;;;;;;;23.36;41.99;92521.78;2052148;70;20089;-75
2023/03/30 10:50:41;;;;;;;;;;;;;;;25.22;38.13;92514.50;2052159;70;20047;-76
2023/03/30 10:53:14;;;;;;;;;;;;;;;24.96;38.33;92515.09;2065188;69;20100;-76
2023/03/30 10:55:55;;;;;;;;;;;;;;;26.70;36.36;92510.28;2065158;69;20059;-75
2023/03/30 10:58:28;;;;;;;;;;;;;;;25.75;34.96;92503.81;2064932;69;20152;-75
2023/03/30 11:00:53;;;;;;;;;;;;;;;26.03;34.36;92503.16;2065166;69;20120;-76
2023/03/30 11:03:28;;;;;;;;;;;;;;;25.06;34.74;92507.25;2052138;69;20062;-76
2023/03/30 11:05:57;;;;;;;;;;;;;;;24.15;35.90;92510.31;2052117;70;20221;-76
2023/03/30 11:08:35;;;;;;;;;;;;;;;25.75;36.11;92491.53;2052186;69;20471;-76
2023/03/30 11:11:01;;;;;;;;;;;;;;;29.60;30.74;92497.94;2052069;69;20051;-75
2023/03/30 11:13:42;;;;;;;;;;;;;;;31.83;29.87;92503.47;2052019;69;20205;-75
2023/03/30 11:16:15;;;;;;;;;;;;;;;32.24;26.08;92490.19;2064858;69;20100;-75
2023/03/30 11:18:48;;;;;;;;;;;;;;;29.38;28.96;92478.66;2051990;69;20067;-75
2023/03/30 11:21:19;;;;;;;;;;;;;;;31.35;27.87;92464.50;2052128;70;20045;-75
2023/03/30 11:23:53;;;;;;;;;;;;;;;34.13;25.31;92473.38;2051613;69;20149;-75
2023/03/30 11:26:23;;;;;;;;;;;;;;;32.91;25.10;92473.25;2065319;69;20138;-75
2023/03/30 11:28:49;;;;;;;;;;;;;;;32.33;26.32;92463.00;2052569;70;20047;-75
2023/03/30 11:31:22;;;;;;;;;;;;;;;31.76;25.70;92466.53;2052414;70;20138;-75
2023/03/30 11:33:56;;;;;;;;;;;;;;;28.67;28.41;92467.88;2052454;70;20502;-75
2023/03/30 11:36:30;;;;;;;;;;;;;;;31.95;25.24;92466.84;2052322;70;20167;-75
2023/03/30 11:39:06;;;;;;;;;;;;;;;34.31;22.56;92474.25;2052495;69;20128;-75
2023/03/30 11:41:40;;;;;;;;;;;;;;;31.04;25.65;92470.91;2052464;70;20062;-75
2023/03/30 11:44:11;;;;;;;;;;;;;;;34.36;23.95;92478.47;2052430;69;20061;-75
2023/03/30 11:46:42;;;;;;;;;;;;;;;35.41;23.30;92473.44;2052295;69;20059;-75
2023/03/30 11:49:26;;;;;;;;;;;;;;;33.87;23.17;92471.94;2052297;70;20138;-74
2023/03/30 11:51:51;;;;;;;;;;;;;;;32.55;23.54;92461.75;2064886;69;20085;-74
2023/03/30 11:54:24;;;;;;;;;;;;;;;31.29;25.45;92450.09;2052190;69;20068;-76
2023/03/30 11:56:50;;;;;;;;;;;;;;;30.76;25.28;92448.22;2051885;70;20053;-75
2023/03/30 11:59:28;;;;;;;;;;;;;;;29.75;26.50;92448.44;2052323;70;20063;-74
2023/03/30 12:02:23;;;;;;;;;;;;;;;28.21;28.57;92440.09;2052214;70;20474;-73
2023/03/30 12:05:00;;;;;;;;;;;;;;;26.54;30.22;92436.00;2049360;70;20047;-74
2023/03/30 12:07:35;;;;;;;;;;;;;;;24.51;33.49;92449.44;2065006;69;20050;-74
2023/03/30 12:10:05;;;;;;;;;;;;;;;23.19;35.77;92434.78;2065104;69;20050;-74
2023/03/30 12:12:37;;;;;;;;;;;;;;;21.39;39.58;92437.38;2052029;70;20165;-75
2023/03/30 12:15:11;;;;;;;;;;;;;;;21.18;40.93;92436.31;2052460;69;20463;-74
2023/03/30 12:17:45;;;;;;;;;;;;;;;20.99;42.07;92429.53;2052350;69;20051;-75
2023/03/30 12:20:17;;;;;;;;;;;;;;;20.09;43.69;92420.59;2052617;69;20490;-75
2023/03/30 12:22:48;;;;;;;;;;;;;;;21.46;41.13;92421.75;2065352;69;20074;-79
2023/03/30 12:25:22;;;;;;;;;;;;;;;20.87;42.10;92420.72;2051888;69;20485;-73
2023/03/30 12:27:58;;;;;;;;;;;;;;;19.80;43.99;92428.56;2064736;69;20412;-73
2023/03/30 12:30:29;;;;;;;;;;;;;;;18.67;46.81;92427.91;2052170;69;20093;-73
2023/03/30 12:33:10;;;;;;;;;;;;;;;19.50;45.42;92428.56;2052189;70;20224;-75
2023/03/30 12:35:48;;;;;;;;;;;;;;;19.09;45.51;92429.69;2052044;70;20526;-75
2023/03/30 12:38:20;;;;;;;;;;;;;;;18.96;46.91;92440.06;2052276;70;20047;-76
2023/03/30 12:40:51;;;;;;;;;;;;;;;16.73;54.19;92439.16;2052145;70;20425;-75
2023/03/30 12:43:27;;;;;;;;;;;;;;;16.04;56.91;92444.50;2052437;69;20066;-74
2023/03/30 12:46:01;;;;;;;;;;;;;;;16.35;56.27;92458.38;2052291;69;20074;-74
2023/03/30 12:48:52;;;;;;;;;;;;;;;15.68;58.75;92456.66;2051979;69;20054;-78
2023/03/30 12:51:18;;;;;;;;;;;;;;;16.81;55.06;92472.06;2052276;70;20051;-74
2023/03/30 12:54:02;;;;;;;;;;;;;;;15.91;52.69;92486.63;2052296;70;20490;-75
2023/03/30 12:56:42;;;;;;;;;;;;;;;16.49;52.95;92495.09;2052313;69;20143;-72
2023/03/30 12:59:20;;;;;;;;;;;;;;;16.30;52.57;92495.84;2052277;70;20055;-74
2023/03/30 13:02:04;;;;;;;;;;;;;;;16.59;52.63;92501.16;2052137;70;20177;-74
2023/03/30 13:04:33;;;;;;;;;;;;;;;16.49;55.88;92521.41;2065305;69;20151;-72
2023/03/30 13:07:08;;;;;;;;;;;;;;;16.46;56.31;92545.44;2052278;70;20102;-73
2023/03/30 13:09:51;;;;;;;;;;;;;;;16.54;56.52;92581.97;2052077;70;20063;-73
2023/03/30 13:12:26;;;;;;;;;;;;;;;16.33;57.11;92619.50;2051928;70;20081;-74
2023/03/30 13:14:59;;;;;;;;;;;;;;;16.05;58.51;92648.25;2052409;70;20178;-74
2023/03/30 13:17:26;;;;;;;;;;;;;;;15.78;58.47;92652.16;2052217;70;20081;-74
2023/03/30 13:20:10;;;;;;;;;;;;;;;15.00;58.87;92645.31;2052288;70;20058;-74
2023/03/30 13:22:36;;;;;;;;;;;;;;;15.47;60.12;92647.28;2052626;70;20051;-74
2023/03/30 13:25:02;;;;;;;;;;;;;;;15.60;60.40;92654.22;2065349;69;20074;-74